Argyle Township, Maine
Current Conditions -  °F | °C
As of 1:53 PM on Thursday 27 Nov 2014 (Local Time) from KBGR Reporting Station
Overcast Overcast  
Wind Chill: -7°   Ceiling: 3100
Heat Index: -1°   Visibility: 10mi
Dew Point: -6°   Wind: 16mph
Humidity: 69%   Direction: 320°NW
Pressure: 29.92"   Gusts: NA
Location:  45.0236°N, 68.7394°W
Report Text: KBGR 271853Z 32014KT 10SM BKN031 OVC050 M01/M06 A2992 RMK AO2 SLP133 T10061056 $
Loading
Personal Weather Stations






























Interactive Weather Map New forecast layout! Learn more

10-Day Weather Forecast

Advertisements
Track Severe Weather on mobile